Time;durP1;ratioP1;P1;durP2;ratioP2;P2;SDS_P1;SDS_P2;PMS_P1;PMS_P2;Temp;Humidity;BMP_temperature;BMP_pressure;BME280_temperature;BME280_humidity;BME280_pressure;Samples;Min_cycle;Max_cycle;Signal;HPM_P1;HPM_P2
2023/05/03 00:00:40;;;;;;;0.20;0.20;;;;;;;19.34;45.22;102418.19;5088160;28;20514;-46
2023/05/03 00:03:05;;;;;;;0.20;0.20;;;;;;;19.34;45.09;102420.13;5115332;28;20047;-45
2023/05/03 00:05:31;;;;;;;0.20;0.20;;;;;;;19.36;45.00;102420.72;5114899;28;20051;-44
2023/05/03 00:07:57;;;;;;;0.20;0.20;;;;;;;19.35;45.10;102419.06;5097127;28;20213;-48
2023/05/03 00:10:23;;;;;;;0.20;0.20;;;;;;;19.34;44.95;102417.34;5116117;27;20050;-44
2023/05/03 00:12:49;;;;;;;0.20;0.20;;;;;;;19.35;45.01;102427.34;5113170;28;20047;-46
2023/05/03 00:15:15;;;;;;;0.20;0.20;;;;;;;19.34;44.93;102409.06;5114972;27;20147;-45
2023/05/03 00:17:40;;;;;;;0.20;0.20;;;;;;;19.34;45.16;102420.13;5115324;27;20058;-45
2023/05/03 00:20:07;;;;;;;0.20;0.20;;;;;;;19.34;45.12;102420.13;5117362;27;20046;-45
2023/05/03 00:22:33;;;;;;;0.20;0.20;;;;;;;19.34;44.98;102417.34;5135714;27;20046;-45
2023/05/03 00:24:59;;;;;;;0.20;0.20;;;;;;;19.34;45.25;102422.88;5126031;27;20532;-44
2023/05/03 00:27:24;;;;;;;0.20;0.20;;;;;;;19.33;45.11;102419.28;5059552;28;20063;-44
2023/05/03 00:29:51;;;;;;;0.20;0.20;;;;;;;19.35;45.31;102424.59;5105493;27;20053;-45
2023/05/03 00:32:18;;;;;;;0.20;0.20;;;;;;;19.34;44.87;102428.41;5135524;27;20070;-44
2023/05/03 00:34:44;;;;;;;0.20;0.20;;;;;;;19.34;45.04;102425.63;5116825;27;20070;-43
2023/05/03 00:37:10;;;;;;;0.20;0.20;;;;;;;19.34;45.28;102414.59;5117346;27;20568;-43
2023/05/03 00:39:36;;;;;;;0.28;0.28;;;;;;;19.34;45.08;102420.94;5120304;27;20051;-46
2023/05/03 00:42:03;;;;;;;0.20;0.20;;;;;;;19.34;44.93;102418.19;5137295;27;20406;-44
2023/05/03 00:44:29;;;;;;;0.20;0.20;;;;;;;19.34;44.75;102423.72;5136398;27;20057;-45
2023/05/03 00:46:55;;;;;;;0.30;0.30;;;;;;;19.33;45.17;102408.22;5118014;28;20459;-46
2023/05/03 00:49:23;;;;;;;0.20;0.20;;;;;;;19.33;45.13;102416.53;5117509;27;20563;-43
2023/05/03 00:51:49;;;;;;;0.20;0.20;;;;;;;19.34;44.96;102412.66;5139292;27;20046;-46
2023/05/03 00:54:15;;;;;;;0.28;0.28;;;;;;;19.33;44.74;102411.00;5124530;27;20039;-43
2023/05/03 00:56:40;;;;;;;0.20;0.20;;;;;;;19.33;44.86;102413.75;5097710;28;20054;-45
2023/05/03 00:59:17;;;;;;;0.20;0.20;;;;;;;19.33;44.94;102413.75;5099057;27;20061;-46
2023/05/03 01:01:47;;;;;;;0.20;0.20;;;;;;;19.33;44.81;102412.91;5120582;27;20050;-47
2023/05/03 01:04:13;;;;;;;0.28;0.28;;;;;;;19.33;45.11;102411.00;5119803;27;20520;-45
2023/05/03 01:06:54;;;;;;;0.20;0.20;;;;;;;19.33;45.00;102407.41;5138767;27;20043;-47
2023/05/03 01:09:30;;;;;;;0.30;0.30;;;;;;;19.34;45.17;102414.59;5138690;27;20495;-46
2023/05/03 01:14:59;;;;;;;0.30;0.30;;;;;;;19.33;45.04;102412.91;5174724;27;20120;-42
2023/05/03 01:17:35;;;;;;;0.20;0.20;;;;;;;19.33;45.13;102421.22;5138473;27;20066;-41
2023/05/03 01:20:07;;;;;;;0.20;0.20;;;;;;;19.33;44.87;102415.69;5141623;27;20465;-41
2023/05/03 01:22:46;;;;;;;0.20;0.20;;;;;;;19.34;44.79;102417.34;5098888;27;20054;-42
2023/05/03 01:25:12;;;;;;;0.20;0.20;;;;;;;19.34;44.72;102414.59;5133323;27;20046;-41
2023/05/03 01:27:39;;;;;;;0.20;0.20;;;;;;;19.33;44.88;102421.22;5113960;27;20047;-42
2023/05/03 01:30:06;;;;;;;0.20;0.20;;;;;;;19.33;44.99;102416.53;5114134;27;20136;-43
2023/05/03 01:32:57;;;;;;;0.20;0.20;;;;;;;19.32;45.20;102420.38;5101613;28;20483;-45
2023/05/03 01:35:31;;;;;;;0.20;0.20;;;;;;;19.32;44.92;102417.59;5097185;27;20055;-41
2023/05/03 01:37:57;;;;;;;0.20;0.20;;;;;;;19.32;44.89;102419.53;5094544;28;20043;-42
2023/05/03 01:40:24;;;;;;;0.20;0.20;;;;;;;19.31;44.87;102424.22;5119307;27;20047;-43
2023/05/03 01:42:51;;;;;;;0.30;0.30;;;;;;;19.32;44.71;102422.31;5114466;27;20047;-41
2023/05/03 01:45:17;;;;;;;0.20;0.20;;;;;;;19.32;44.82;102420.38;5132616;27;20054;-41
2023/05/03 01:47:43;;;;;;;0.20;0.20;;;;;;;19.32;44.98;102422.31;5120153;27;20081;-42
2023/05/03 01:50:09;;;;;;;0.20;0.20;;;;;;;19.32;44.87;102427.81;5131627;27;20130;-43
2023/05/03 01:52:34;;;;;;;0.20;0.20;;;;;;;19.33;45.15;102437.78;5132703;27;20080;-44
2023/05/03 01:55:00;;;;;;;0.20;0.20;;;;;;;19.32;44.89;102428.66;5140672;27;20046;-44
2023/05/03 01:57:26;;;;;;;0.20;0.20;;;;;;;19.31;45.22;102427.00;5153597;27;20193;-41
2023/05/03 01:59:51;;;;;;;0.20;0.20;;;;;;;19.33;45.16;102433.09;5141671;27;20112;-43
2023/05/03 02:02:17;;;;;;;0.20;0.20;;;;;;;19.32;44.82;102430.59;5111790;28;20098;-42
2023/05/03 02:04:43;;;;;;;0.20;0.20;;;;;;;19.32;44.91;102428.66;5112105;28;20063;-42
2023/05/03 02:07:08;;;;;;;0.25;0.25;;;;;;;19.33;44.83;102433.09;5111808;28;20043;-40
2023/05/03 02:09:34;;;;;;;0.20;0.20;;;;;;;19.31;44.92;102429.75;5111259;27;20048;-42
2023/05/03 02:12:00;;;;;;;0.20;0.20;;;;;;;19.34;44.73;102442.22;5111908;28;20043;-41
2023/05/03 02:14:26;;;;;;;0.20;0.20;;;;;;;19.31;44.75;102440.81;5126666;27;20120;-44
2023/05/03 02:16:54;;;;;;;0.20;0.20;;;;;;;19.31;44.84;102446.31;5132632;27;20053;-43
2023/05/03 02:19:20;;;;;;;;;;;;;;;19.32;45.13;102445.22;5141250;27;20139;-45
2023/05/03 02:21:45;;;;;;;0.20;0.20;;;;;;;19.31;45.01;102449.09;5093135;28;19926;-41
2023/05/03 02:24:11;;;;;;;0.20;0.20;;;;;;;19.32;44.86;102455.44;5089917;28;20048;-41
2023/05/03 02:26:37;;;;;;;0.25;0.25;;;;;;;19.31;44.90;102460.13;5097950;28;20076;-43
2023/05/03 02:29:02;;;;;;;0.20;0.20;;;;;;;19.30;45.25;102462.06;5097067;28;20044;-42
2023/05/03 02:31:28;;;;;;;0.20;0.20;;;;;;;19.31;45.22;102457.38;5115984;28;20537;-41
2023/05/03 02:33:54;;;;;;;0.20;0.20;;;;;;;19.30;45.10;102455.69;5117598;28;20108;-41
2023/05/03 02:36:20;;;;;;;0.20;0.20;;;;;;;19.32;44.92;102458.22;5117998;28;20446;-41
2023/05/03 02:38:46;;;;;;;0.20;0.20;;;;;;;19.30;45.01;102459.31;5117638;28;20050;-41
2023/05/03 02:41:11;;;;;;;0.20;0.20;;;;;;;19.32;45.05;102463.75;5098637;28;20066;-42
2023/05/03 02:43:37;;;;;;;0.20;0.20;;;;;;;19.31;45.08;102460.13;5116980;28;20399;-44
2023/05/03 02:46:03;;;;;;;0.20;0.20;;;;;;;19.30;44.89;102462.06;5117989;27;20043;-42
2023/05/03 02:48:29;;;;;;;0.20;0.20;;;;;;;19.29;45.04;102449.31;5116708;28;20494;-42
2023/05/03 02:50:54;;;;;;;0.20;0.20;;;;;;;19.30;44.63;102456.53;5116911;28;20039;-43
2023/05/03 02:53:20;;;;;;;0.20;0.20;;;;;;;19.32;44.89;102458.22;5116973;27;20458;-45
2023/05/03 02:55:46;;;;;;;0.20;0.20;;;;;;;19.31;44.90;102454.63;5132358;27;20051;-42
2023/05/03 02:58:11;;;;;;;0.20;0.20;;;;;;;19.30;44.82;102455.69;5138060;27;20114;-44
2023/05/03 03:00:37;;;;;;;0.20;0.20;;;;;;;19.32;45.04;102455.44;5113394;27;20047;-41
2023/05/03 03:03:03;;;;;;;0.30;0.30;;;;;;;19.30;44.80;102453.78;5096665;28;20627;-41
2023/05/03 03:05:29;;;;;;;0.20;0.20;;;;;;;19.30;44.89;102448.25;5096619;28;20051;-43
2023/05/03 03:07:54;;;;;;;0.20;0.20;;;;;;;19.30;45.13;102436.38;5097300;28;20099;-41
2023/05/03 03:10:20;;;;;;;0.20;0.20;;;;;;;19.31;45.00;102435.28;5096665;28;20419;-42
2023/05/03 03:12:46;;;;;;;0.20;0.20;;;;;;;19.30;44.87;102433.59;5096599;28;20079;-44
2023/05/03 03:15:12;;;;;;;0.30;0.30;;;;;;;19.30;45.01;102430.84;5103780;28;20285;-43
2023/05/03 03:17:38;;;;;;;0.30;0.30;;;;;;;19.30;44.82;102423.41;5116184;28;20048;-41
2023/05/03 03:20:06;;;;;;;0.30;0.30;;;;;;;19.31;44.89;102415.94;5101383;28;20043;-41
2023/05/03 03:22:31;;;;;;;0.20;0.20;;;;;;;19.30;44.96;102417.03;5078629;28;20071;-42
2023/05/03 03:24:57;;;;;;;0.20;0.20;;;;;;;19.30;45.07;102414.28;5096903;28;20048;-42
2023/05/03 03:27:23;;;;;;;0.20;0.20;;;;;;;19.29;45.06;102413.41;5097107;28;20054;-46
2023/05/03 03:29:48;;;;;;;0.30;0.30;;;;;;;19.29;45.11;102412.56;5096290;28;20048;-41
2023/05/03 03:32:14;;;;;;;0.28;0.28;;;;;;;19.29;44.81;102410.66;5096832;28;20047;-41
2023/05/03 03:34:40;;;;;;;0.20;0.20;;;;;;;19.30;45.00;102400.47;5096594;28;20063;-44
2023/05/03 03:37:05;;;;;;;0.30;0.30;;;;;;;19.30;44.81;102403.22;5096054;28;20264;-41
2023/05/03 03:39:31;;;;;;;0.20;0.20;;;;;;;19.30;45.09;102403.22;5096416;28;20071;-43
2023/05/03 03:41:57;;;;;;;0.20;0.20;;;;;;;19.30;45.04;102406.81;5096599;28;20043;-41
2023/05/03 03:44:22;;;;;;;0.20;0.20;;;;;;;19.30;45.10;102400.47;5108809;28;20047;-42
2023/05/03 03:46:48;;;;;;;0.20;0.20;;;;;;;19.29;44.99;102398.75;5117042;28;20042;-42
2023/05/03 03:49:14;;;;;;;0.20;0.20;;;;;;;19.29;45.10;102399.59;5117067;28;20051;-41
2023/05/03 03:51:39;;;;;;;0.20;0.20;;;;;;;19.29;45.07;102402.34;5116463;28;20228;-42
2023/05/03 03:54:05;;;;;;;0.20;0.20;;;;;;;19.29;44.85;102401.53;5116972;27;20415;-44
2023/05/03 03:56:31;;;;;;;0.30;0.30;;;;;;;19.30;44.71;102383.88;5137361;27;20043;-41
2023/05/03 03:58:56;;;;;;;0.20;0.20;;;;;;;19.30;44.92;102389.41;5137844;27;20049;-43
2023/05/03 04:01:22;;;;;;;0.22;0.22;;;;;;;19.29;44.79;102383.03;5100156;27;20469;-42
2023/05/03 04:03:48;;;;;;;0.20;0.20;;;;;;;19.29;44.71;102371.13;5077596;28;20051;-42
2023/05/03 04:06:14;;;;;;;0.28;0.28;;;;;;;19.29;44.67;102374.72;5095817;28;20493;-43
2023/05/03 04:08:40;;;;;;;0.30;0.30;;;;;;;19.29;44.75;102374.72;5096201;28;20048;-42
2023/05/03 04:11:10;;;;;;;0.20;0.20;;;;;;;19.29;45.06;102374.72;5077318;28;20036;-44
2023/05/03 04:13:36;;;;;;;0.30;0.30;;;;;;;19.30;44.70;102364.56;5076692;28;20074;-41
2023/05/03 04:16:02;;;;;;;0.20;0.20;;;;;;;19.28;44.84;102383.28;5095409;28;20096;-43
2023/05/03 04:18:30;;;;;;;0.30;0.30;;;;;;;19.29;44.82;102382.19;5101294;27;20759;-41
2023/05/03 04:20:55;;;;;;;0.22;0.22;;;;;;;19.28;44.99;102391.56;5107820;27;20040;-43
2023/05/03 04:23:21;;;;;;;0.30;0.30;;;;;;;19.29;44.72;102390.47;5095428;28;20463;-42
2023/05/03 04:25:47;;;;;;;0.20;0.20;;;;;;;19.29;44.81;102401.53;5095311;28;20104;-42
2023/05/03 04:28:13;;;;;;;0.20;0.20;;;;;;;19.29;44.96;102399.59;5095364;28;20392;-41
2023/05/03 04:30:42;;;;;;;0.20;0.20;;;;;;;19.28;44.89;102406.22;5077170;28;20148;-44
2023/05/03 04:33:08;;;;;;;0.20;0.20;;;;;;;19.29;44.88;102415.34;5095171;28;20082;-42
2023/05/03 04:35:34;;;;;;;0.30;0.30;;;;;;;19.29;44.89;102421.69;5095157;28;20048;-42
2023/05/03 04:38:01;;;;;;;0.20;0.20;;;;;;;19.29;44.67;102427.22;5094946;28;20052;-43
2023/05/03 04:40:28;;;;;;;0.20;0.20;;;;;;;19.29;44.79;102418.09;5104219;28;20326;-42
2023/05/03 04:42:54;;;;;;;0.20;0.20;;;;;;;19.29;45.10;102426.38;5112711;28;20194;-45
2023/05/03 04:45:20;;;;;;;0.20;0.20;;;;;;;19.28;44.68;102422.78;5077103;28;20031;-41
2023/05/03 04:47:46;;;;;;;0.20;0.20;;;;;;;19.28;44.74;102413.66;5098547;27;20048;-42
2023/05/03 04:50:12;;;;;;;0.20;0.20;;;;;;;19.29;44.76;102426.38;5117993;27;20049;-44
2023/05/03 04:52:38;;;;;;;0.20;0.20;;;;;;;19.28;45.23;102421.94;5096216;28;20074;-42
2023/05/03 04:55:04;;;;;;;0.20;0.20;;;;;;;19.28;45.04;102422.78;5125510;27;20403;-41
2023/05/03 04:57:31;;;;;;;0.20;0.20;;;;;;;19.28;44.83;102420.03;5095126;28;20043;-44
2023/05/03 04:59:57;;;;;;;0.20;0.20;;;;;;;19.28;44.89;102424.72;5101195;28;20039;-43
2023/05/03 05:02:22;;;;;;;0.20;0.20;;;;;;;19.27;44.96;102423.88;5093847;28;20397;-41
2023/05/03 05:04:48;;;;;;;0.20;0.20;;;;;;;19.28;44.73;102430.22;5095261;28;20044;-43
2023/05/03 05:07:14;;;;;;;0.20;0.20;;;;;;;19.26;44.70;102430.50;5095033;28;20401;-41
2023/05/03 05:09:40;;;;;;;0.20;0.20;;;;;;;19.28;44.91;102433.00;5098575;28;20040;-42
2023/05/03 05:12:06;;;;;;;0.20;0.20;;;;;;;19.27;44.92;102437.69;5115500;28;20047;-43
2023/05/03 05:14:31;;;;;;;0.30;0.30;;;;;;;19.28;44.67;102441.28;5094810;28;20439;-43
2023/05/03 05:16:57;;;;;;;0.20;0.20;;;;;;;19.28;44.71;102446.81;5102654;28;20070;-42
2023/05/03 05:19:23;;;;;;;0.20;0.20;;;;;;;19.27;44.94;102445.13;5087111;28;20039;-42
2023/05/03 05:21:50;;;;;;;0.20;0.20;;;;;;;19.28;45.11;102446.81;5115789;28;20048;-41
2023/05/03 05:24:16;;;;;;;0.20;0.20;;;;;;;19.28;44.79;102455.94;5115518;28;20051;-42
2023/05/03 05:26:42;;;;;;;0.20;0.20;;;;;;;19.27;44.82;102457.03;5096214;28;20072;-43
2023/05/03 05:29:08;;;;;;;0.30;0.30;;;;;;;19.28;44.44;102457.84;5095078;28;20096;-43
2023/05/03 05:31:35;;;;;;;0.20;0.20;;;;;;;19.27;44.79;102464.47;5114382;28;20054;-43
2023/05/03 05:34:01;;;;;;;0.20;0.20;;;;;;;19.26;44.93;102462.81;5114874;28;20451;-42
2023/05/03 05:36:27;;;;;;;0.30;0.30;;;;;;;19.26;45.12;102468.31;5114972;28;20062;-42
2023/05/03 05:38:52;;;;;;;0.20;0.20;;;;;;;19.26;42.97;102465.56;5112071;28;20059;-43
2023/05/03 05:41:18;;;;;;;0.30;0.30;;;;;;;19.26;44.62;102458.09;5089773;28;20035;-42
2023/05/03 05:43:44;;;;;;;0.40;0.40;;;;;;;19.26;44.35;102460.88;5101944;27;20051;-42
2023/05/03 05:46:10;;;;;;;0.20;0.20;;;;;;;19.26;44.15;102460.03;5100230;27;20081;-43
2023/05/03 05:48:35;;;;;;;0.20;0.20;;;;;;;19.25;44.77;102456.41;5104574;28;20142;-41
2023/05/03 05:51:01;;;;;;;0.20;0.20;;;;;;;19.25;44.51;102459.16;5084419;28;20039;-41
2023/05/03 05:53:27;;;;;;;0.20;0.20;;;;;;;19.26;44.24;102471.09;5106944;27;20057;-42
2023/05/03 05:55:53;;;;;;;0.20;0.20;;;;;;;19.25;43.77;102469.38;5100387;27;20134;-42
2023/05/03 05:58:19;;;;;;;0.20;0.20;;;;;;;19.27;43.27;102478.28;5092780;28;21748;-42
2023/05/03 06:00:47;;;;;;;0.20;0.20;;;;;;;19.25;42.56;102475.75;5100470;27;20044;-42
2023/05/03 06:03:14;;;;;;;0.20;0.20;;;;;;;19.25;42.86;102480.44;5078970;28;20047;-42
2023/05/03 06:05:40;;;;;;;0.20;0.20;;;;;;;19.27;42.72;102475.53;5069699;28;20588;-41
2023/05/03 06:08:07;;;;;;;0.20;0.20;;;;;;;19.26;42.69;102471.91;5092481;28;20141;-45
2023/05/03 06:10:32;;;;;;;0.22;0.22;;;;;;;19.25;43.22;102472.16;5095743;28;20078;-44
2023/05/03 06:12:58;;;;;;;0.20;0.20;;;;;;;19.25;42.18;102470.22;5101100;28;20124;-45
2023/05/03 06:15:24;;;;;;;0.20;0.20;;;;;;;19.25;42.24;102472.97;5094910;28;20043;-45
2023/05/03 06:17:50;;;;;;;0.20;0.20;;;;;;;19.25;43.81;102477.66;5106163;27;20437;-43
2023/05/03 06:20:17;;;;;;;0.20;0.20;;;;;;;19.24;44.58;102474.06;5098522;27;20127;-45
2023/05/03 06:22:43;;;;;;;0.20;0.20;;;;;;;19.24;43.15;102476.84;5098673;28;20082;-43
2023/05/03 06:25:09;;;;;;;0.20;0.20;;;;;;;19.25;42.44;102474.91;5102601;28;20067;-43
2023/05/03 06:27:37;;;;;;;0.20;0.20;;;;;;;19.24;42.55;102482.34;5100781;28;20048;-43
2023/05/03 06:30:03;;;;;;;0.20;0.20;;;;;;;19.24;44.29;102482.34;5083522;28;20051;-43
2023/05/03 06:32:29;;;;;;;0.20;0.20;;;;;;;19.24;44.62;102478.75;5087833;27;20384;-47
2023/05/03 06:34:55;;;;;;;0.20;0.20;;;;;;;19.25;44.38;102488.72;5097613;27;20945;-45
2023/05/03 06:37:21;;;;;;;0.20;0.20;;;;;;;19.24;44.52;102487.88;5098674;28;20043;-44
2023/05/03 06:39:49;;;;;;;0.20;0.20;;;;;;;19.23;44.53;102482.63;5066105;28;20047;-43
2023/05/03 06:42:14;;;;;;;0.20;0.20;;;;;;;19.22;42.71;102479.00;5097851;28;20036;-46
2023/05/03 06:44:41;;;;;;;0.20;0.20;;;;;;;19.25;42.58;102477.66;5102797;28;20317;-46
2023/05/03 06:47:07;;;;;;;0.20;0.20;;;;;;;19.07;41.16;102473.16;5077321;27;20075;-44
2023/05/03 06:49:32;;;;;;;0.20;0.20;;;;;;;19.13;41.95;102476.84;5092634;28;20095;-45
2023/05/03 06:51:58;;;;;;;0.20;0.20;;;;;;;19.21;41.97;102470.94;5074129;27;20047;-44
2023/05/03 06:54:24;;;;;;;0.20;0.20;;;;;;;19.23;43.34;102474.31;5088380;27;20112;-43
2023/05/03 06:56:49;;;;;;;0.20;0.20;;;;;;;19.25;43.28;102480.44;5084000;27;20532;-45
2023/05/03 06:59:15;;;;;;;0.20;0.20;;;;;;;19.26;42.90;102471.09;5082922;28;20066;-45
2023/05/03 07:01:41;;;;;;;0.20;0.20;;;;;;;19.26;43.66;102465.56;5061789;28;20488;-43
2023/05/03 07:04:07;;;;;;;0.30;0.30;;;;;;;19.25;41.69;102469.38;5079568;27;20058;-45
2023/05/03 07:06:33;;;;;;;0.20;0.20;;;;;;;19.25;42.19;102472.16;5074714;27;20790;-44
2023/05/03 07:09:13;;;;;;;0.20;0.20;;;;;;;18.79;39.75;102472.00;5056757;27;20066;-43
2023/05/03 07:11:46;;;;;;;0.28;0.28;;;;;;;19.08;41.40;102469.28;5076509;27;20043;-44
2023/05/03 07:14:11;;;;;;;0.20;0.20;;;;;;;19.18;42.78;102475.06;5082793;27;20198;-46
2023/05/03 07:16:37;;;;;;;0.20;0.20;;;;;;;19.23;43.17;102474.31;5099208;28;20060;-43
2023/05/03 07:19:03;;;;;;;0.30;0.30;;;;;;;19.24;43.23;102476.00;5096439;27;20078;-44
2023/05/03 07:21:29;;;;;;;0.20;0.20;;;;;;;19.26;42.22;102471.09;5094285;28;20132;-43
2023/05/03 07:23:54;;;;;;;0.20;0.20;;;;;;;19.26;41.63;102477.44;5098121;28;20462;-44
2023/05/03 07:26:20;;;;;;;0.20;0.20;;;;;;;19.26;43.42;102471.91;5097510;27;20496;-43
2023/05/03 07:28:46;;;;;;;0.20;0.20;;;;;;;19.29;42.78;102465.06;5095797;27;20426;-47
2023/05/03 07:31:11;;;;;;;0.20;0.20;;;;;;;19.28;43.62;102460.63;5098052;28;20347;-44
2023/05/03 07:33:37;;;;;;;0.20;0.20;;;;;;;19.30;43.58;102461.22;5095713;28;20083;-44
2023/05/03 07:36:04;;;;;;;0.20;0.20;;;;;;;19.28;39.59;102464.22;5096577;27;20474;-44
2023/05/03 07:38:30;;;;;;;0.20;0.20;;;;;;;19.00;39.79;102455.91;5082387;27;20066;-48
2023/05/03 07:40:56;;;;;;;0.20;0.20;;;;;;;19.20;41.70;102438.91;5097081;28;20047;-45
2023/05/03 07:43:22;;;;;;;0.20;0.20;;;;;;;19.27;42.38;102439.63;5102731;28;20430;-43
2023/05/03 07:45:48;;;;;;;0.20;0.20;;;;;;;19.28;42.58;102436.59;5097684;28;20054;-47
2023/05/03 07:48:14;;;;;;;0.20;0.20;;;;;;;19.32;42.77;102433.34;5073199;28;20043;-45
2023/05/03 07:50:42;;;;;;;0.20;0.20;;;;;;;19.33;42.89;102437.78;5100931;27;20039;-44
2023/05/03 07:53:08;;;;;;;0.20;0.20;;;;;;;19.34;42.74;102437.53;5100444;27;20240;-43
2023/05/03 07:55:35;;;;;;;0.20;0.20;;;;;;;19.33;41.91;102441.38;5082601;28;20463;-44
2023/05/03 07:58:02;;;;;;;0.20;0.20;;;;;;;19.34;43.10;102436.69;5100991;28;20046;-45
2023/05/03 08:00:28;;;;;;;0.20;0.20;;;;;;;19.35;43.24;102436.47;5081428;28;20100;-46
2023/05/03 08:02:53;;;;;;;0.20;0.20;;;;;;;19.35;43.24;102443.91;5091465;27;20322;-43
2023/05/03 08:05:20;;;;;;;0.20;0.20;;;;;;;19.21;38.39;102446.97;5072559;28;20103;-43
2023/05/03 08:07:46;;;;;;;0.20;0.20;;;;;;;18.97;37.35;102442.56;5085367;27;20707;-51
2023/05/03 08:10:12;;;;;;;0.20;0.20;;;;;;;18.60;36.87;102440.03;5078667;28;20842;-53
2023/05/03 08:12:38;;;;;;;0.20;0.20;;;;;;;18.75;36.99;102437.66;5096772;28;21187;-54
2023/05/03 08:15:05;;;;;;;0.20;0.20;;;;;;;18.94;37.99;102432.84;5093874;28;20052;-54
2023/05/03 08:17:31;;;;;;;0.20;0.20;;;;;;;18.81;37.53;102438.63;5094868;27;20051;-45
2023/05/03 08:19:57;;;;;;;0.20;0.20;;;;;;;18.71;37.17;102442.00;5094686;28;20032;-49
2023/05/03 08:22:25;;;;;;;0.20;0.20;;;;;;;18.78;36.75;102444.59;5078449;28;20040;-49
2023/05/03 08:24:52;;;;;;;0.17;0.17;;;;;;;19.01;37.72;102438.25;5096386;28;20047;-44
2023/05/03 08:27:18;;;;;;;0.22;0.22;;;;;;;19.16;36.86;102437.72;5100010;28;20062;-45
2023/05/03 08:29:43;;;;;;;0.20;0.20;;;;;;;19.22;37.55;102440.34;5098864;27;20410;-43
2023/05/03 08:32:09;;;;;;;0.20;0.20;;;;;;;19.34;39.14;102429.25;5075274;28;20039;-58
2023/05/03 08:34:35;;;;;;;0.20;0.20;;;;;;;19.37;38.52;102425.16;5087237;27;20073;-43
2023/05/03 08:37:03;;;;;;;0.20;0.20;;;;;;;19.39;39.07;102429.38;5088661;27;20105;-43
2023/05/03 08:39:30;;;;;;;0.20;0.20;;;;;;;19.38;39.79;102429.59;5094662;27;20055;-44
2023/05/03 08:41:56;;;;;;;0.20;0.20;;;;;;;19.38;40.32;102430.44;5097131;27;20322;-43
2023/05/03 08:44:22;;;;;;;0.20;0.20;;;;;;;19.07;34.09;102433.66;5077241;28;20241;-47
2023/05/03 08:46:49;;;;;;;0.20;0.20;;;;;;;18.84;33.62;102440.06;5102448;28;20039;-53
2023/05/03 08:49:16;;;;;;;0.20;0.20;;;;;;;18.77;33.38;102426.38;5067659;28;20142;-56
2023/05/03 08:51:42;;;;;;;0.20;0.20;;;;;;;18.71;33.59;102422.66;5078741;28;20059;-56
2023/05/03 08:54:08;;;;;;;0.30;0.30;;;;;;;19.07;35.27;102426.22;5093032;27;20043;-44
2023/05/03 08:56:42;;;;;;;0.20;0.20;;;;;;;19.22;36.42;102431.22;5095023;27;20503;-45
2023/05/03 08:59:10;;;;;;;0.20;0.20;;;;;;;19.29;35.72;102426.38;5079113;28;20058;-45
2023/05/03 09:01:36;;;;;;;;;;;;;;;19.32;35.61;102419.53;5106105;28;20038;-44
2023/05/03 09:04:02;;;;;;;0.20;0.20;;;;;;;19.34;35.84;102418.19;5092334;27;19931;-46
2023/05/03 09:06:30;;;;;;;0.20;0.20;;;;;;;19.35;36.87;102406.06;5079862;28;20448;-44
2023/05/03 09:08:56;;;;;;;0.20;0.20;;;;;;;19.37;39.14;102414.09;5100882;28;20714;-44
2023/05/03 09:11:26;;;;;;;0.20;0.20;;;;;;;19.38;37.22;102410.25;5098847;28;20050;-45
2023/05/03 09:13:52;;;;;;;0.20;0.20;;;;;;;19.38;38.46;102404.72;5101825;27;20074;-44
2023/05/03 09:16:22;;;;;;;0.20;0.20;;;;;;;19.38;39.21;102411.09;5080715;28;20057;-43
2023/05/03 09:19:12;;;;;;;0.20;0.20;;;;;;;19.41;36.97;102405.09;5103081;28;20240;-44
2023/05/03 09:21:38;;;;;;;0.20;0.20;;;;;;;19.42;39.11;102403.16;5081899;28;20058;-44
2023/05/03 09:24:14;;;;;;;0.20;0.20;;;;;;;19.42;38.91;102401.22;5090651;28;20446;-45
2023/05/03 09:26:41;;;;;;;0.20;0.20;;;;;;;19.42;39.58;102401.22;5101444;28;20420;-45
2023/05/03 09:29:07;;;;;;;0.20;0.20;;;;;;;19.43;38.45;102393.78;5100093;27;20204;-46
2023/05/03 09:31:34;;;;;;;0.20;0.20;;;;;;;19.43;39.04;102393.78;5070149;27;20314;-44
2023/05/03 09:34:00;;;;;;;0.20;0.20;;;;;;;19.42;38.11;102387.41;5061584;28;20043;-43
2023/05/03 09:36:26;;;;;;;0.22;0.22;;;;;;;19.43;37.46;102391.00;5089314;27;20056;-43
2023/05/03 09:38:53;;;;;;;0.20;0.20;;;;;;;19.42;37.55;102408.69;5089655;28;20411;-43
2023/05/03 09:41:27;;;;;;;0.20;0.20;;;;;;;19.42;37.70;102403.16;5076153;28;20039;-43
2023/05/03 09:43:55;;;;;;;0.20;0.20;;;;;;;19.43;37.42;102388.25;5072168;28;20069;-45
2023/05/03 09:46:23;;;;;;;0.20;0.20;;;;;;;19.38;36.86;102389.00;5097455;28;20039;-45
2023/05/03 09:48:49;;;;;;;0.30;0.30;;;;;;;19.44;36.92;102392.72;5102519;27;20043;-42
2023/05/03 09:51:15;;;;;;;0.20;0.20;;;;;;;19.47;37.75;102393.06;5105127;27;20043;-44
2023/05/03 09:53:41;;;;;;;0.20;0.20;;;;;;;19.50;37.56;102388.94;5099958;27;20047;-43
2023/05/03 09:56:11;;;;;;;0.40;0.40;;;;;;;19.47;37.67;102373.72;5096876;28;20063;-44
2023/05/03 09:58:37;;;;;;;0.20;0.20;;;;;;;19.45;37.16;102381.41;5100141;28;20050;-43
2023/05/03 10:01:03;;;;;;;0.20;0.20;;;;;;;19.47;37.52;102373.72;5076679;28;20046;-44
2023/05/03 10:03:49;;;;;;;0.20;0.20;;;;;;;19.47;37.67;102365.44;5094797;28;20051;-44
2023/05/03 10:06:26;;;;;;;0.20;0.20;;;;;;;19.46;38.15;102352.69;5094981;28;20055;-46
2023/05/03 10:09:04;;;;;;;0.20;0.20;;;;;;;19.44;37.47;102349.34;5082901;28;20539;-44
2023/05/03 10:11:32;;;;;;;0.20;0.20;;;;;;;19.47;38.30;102359.03;5081005;28;20055;-45
2023/05/03 10:13:58;;;;;;;;;;;;;;;19.48;38.05;102363.50;5102666;28;20411;-44
2023/05/03 10:16:31;;;;;;;0.22;0.22;;;;;;;19.46;38.20;102358.19;5099208;27;20372;-45
2023/05/03 10:19:05;;;;;;;0.20;0.20;;;;;;;19.47;38.24;102357.13;5107380;28;20096;-44
2023/05/03 10:21:41;;;;;;;0.20;0.20;;;;;;;19.48;37.28;102355.22;5077932;28;20046;-46
2023/05/03 10:26:46;;;;;;;0.20;0.20;;;;;;;19.51;37.51;102349.16;5137871;27;21696;-41
2023/05/03 10:32:27;;;;;;;0.20;0.20;;;;;;;19.53;37.85;102338.72;5128191;27;20426;-43
2023/05/03 10:34:59;;;;;;;0.20;0.20;;;;;;;19.52;37.71;102350.88;5100660;27;20044;-45
2023/05/03 10:37:26;;;;;;;0.20;0.20;;;;;;;19.48;37.00;102352.44;5085060;27;20069;-45
2023/05/03 10:39:52;;;;;;;0.20;0.20;;;;;;;19.52;37.17;102343.41;5100322;27;20181;-45
2023/05/03 10:42:20;;;;;;;0.20;0.20;;;;;;;19.54;37.25;102352.28;5087501;27;20484;-43
2023/05/03 10:44:51;;;;;;;0.25;0.25;;;;;;;19.54;37.68;102343.16;5092580;27;20428;-43
2023/05/03 10:47:21;;;;;;;0.25;0.25;;;;;;;19.55;37.25;102353.94;5094669;28;20055;-44
2023/05/03 10:52:47;;;;;;;0.20;0.20;;;;;;;19.59;37.79;102348.75;5159515;27;20599;-45
2023/05/03 10:55:15;;;;;;;0.20;0.20;;;;;;;19.57;37.72;102344.59;5116199;27;20395;-45
2023/05/03 10:57:43;;;;;;;0.20;0.20;;;;;;;19.53;37.37;102342.31;5141164;27;20074;-46
2023/05/03 11:00:33;;;;;;;0.20;0.20;;;;;;;19.54;37.69;102341.22;5136756;27;20134;-46
2023/05/03 11:03:20;;;;;;;0.20;0.20;;;;;;;19.55;37.63;102331.84;5123201;27;20042;-45
2023/05/03 11:05:47;;;;;;;0.20;0.20;;;;;;;19.56;37.82;102332.69;5140675;27;20038;-44
2023/05/03 11:08:16;;;;;;;0.20;0.20;;;;;;;19.58;38.24;102321.38;5111029;27;20407;-44
2023/05/03 11:10:44;;;;;;;0.20;0.20;;;;;;;19.48;36.98;102331.19;5121612;27;20073;-44
2023/05/03 11:13:10;;;;;;;0.20;0.20;;;;;;;19.48;37.18;102324.81;5131975;27;20050;-43
2023/05/03 11:15:35;;;;;;;0.20;0.20;;;;;;;19.54;36.88;102326.56;5102090;27;20448;-44
2023/05/03 11:18:02;;;;;;;0.20;0.20;;;;;;;19.62;38.28;102319.84;5121949;27;20454;-42
2023/05/03 11:20:28;;;;;;;0.20;0.20;;;;;;;19.59;37.40;102318.38;5131343;27;20110;-44
2023/05/03 11:22:55;;;;;;;0.20;0.20;;;;;;;19.57;36.74;102305.91;5122848;27;20115;-43
2023/05/03 11:25:20;;;;;;;0.20;0.20;;;;;;;19.60;37.79;102299.84;5136509;27;20291;-45
2023/05/03 11:27:46;;;;;;;0.20;0.20;;;;;;;19.64;39.28;102303.81;5129800;27;20473;-44
2023/05/03 11:30:13;;;;;;;0.20;0.20;;;;;;;19.71;39.34;102307.28;5128027;27;20484;-46
2023/05/03 11:32:41;;;;;;;0.20;0.20;;;;;;;19.52;36.24;102310.25;5109471;27;20058;-44
2023/05/03 11:35:08;;;;;;;0.20;0.20;;;;;;;19.61;36.82;102298.81;5097006;27;20069;-45
2023/05/03 11:37:34;;;;;;;0.20;0.20;;;;;;;19.64;37.38;102301.06;5110959;27;20054;-44